| time (UTC) | temp F | wind direction | speed MPH | gust MPH | rain 1hr in | rain 24hr in | rain mn in | humidity % | barometer mb |
| 20260903110004 | 61 | 255 | 13.0 | 32.0 | 0.00 | 0.12 | 0.02 | 77 | 1004.4 |
| 20260903104504 | 61 | 263 | 11.0 | 25.0 | 0.00 | 0.12 | 0.02 | 75 | 1004.5 |
| 20260903103004 | 62 | 266 | 5.0 | 18.0 | 0.00 | 0.12 | 0.02 | 75 | 1004.4 |
| 20260903101504 | 61 | 271 | 7.0 | 23.0 | 0.00 | 0.12 | 0.02 | 75 | 1004.1 |
| 20260903100004 | 60 | 270 | 8.0 | 22.0 | 0.00 | 0.12 | 0.02 | 77 | 1004.1 |
| 20260903094504 | 60 | 274 | 9.0 | 21.0 | 0.00 | 0.12 | 0.02 | 78 | 1003.8 |
| 20260903093004 | 60 | 278 | 11.0 | 27.0 | 0.00 | 0.12 | 0.02 | 77 | 1004.0 |
| 20260903091504 | 59 | 267 | 10.0 | 22.0 | 0.00 | 0.12 | 0.02 | 81 | 1004.1 |
| 20260903090004 | 59 | 264 | 13.0 | 26.0 | 0.00 | 0.12 | 0.02 | 83 | 1004.0 |
| 20260903084504 | 58 | 266 | 8.0 | 24.0 | 0.00 | 0.12 | 0.02 | 82 | 1003.8 |
| 20260903083025 | 58 | 256 | 8.0 | 21.0 | 0.00 | 0.12 | 0.02 | 84 | 1003.7 |
| 20260903081504 | 57 | 257 | 17.0 | 32.0 | 0.00 | 0.12 | 0.02 | 87 | 1003.5 |
| 20260903080004 | 57 | 261 | 14.0 | 27.0 | 0.00 | 0.12 | 0.02 | 87 | 1003.6 |
| 20260903074504 | 57 | 266 | 8.0 | 18.0 | 0.00 | 0.12 | 0.02 | 88 | 1003.8 |
| 20260903073025 | 56 | 267 | 6.0 | 23.0 | 0.00 | 0.12 | 0.02 | 90 | 1003.8 |
| 20260903071525 | 56 | 265 | 11.0 | 27.0 | 0.00 | 0.12 | 0.02 | 91 | 1003.4 |
| 20260903070004 | 56 | 274 | 9.0 | 23.0 | 0.00 | 0.12 | 0.02 | 94 | 1003.1 |
| 20260903064525 | 57 | 274 | 9.0 | 24.0 | 0.00 | 0.12 | 0.02 | 95 | 1003.1 |
| 20260903063004 | 57 | 258 | 9.0 | 23.0 | 0.00 | 0.12 | 0.02 | 96 | 1002.9 |
| 20260903061525 | 56 | 254 | 12.0 | 24.0 | 0.00 | 0.12 | 0.02 | 96 | 1002.6 |
| 20260903060004 | 56 | 252 | 11.0 | 22.0 | 0.00 | 0.12 | 0.02 | 96 | 1002.3 |
| 20260903054504 | 56 | 255 | 10.0 | 21.0 | 0.00 | 0.12 | 0.02 | 96 | 1002.1 |
| 20260903053004 | 56 | 252 | 10.0 | 22.0 | 0.00 | 0.12 | 0.02 | 96 | 1001.9 |
| 20260903051504 | 56 | 253 | 10.0 | 16.0 | 0.00 | 0.12 | 0.02 | 96 | 1001.8 |
| 20260903050004 | 56 | 252 | 10.0 | 20.0 | 0.00 | 0.12 | 0.02 | 96 | 1001.8 |
| 20260903044504 | 56 | 254 | 8.0 | 19.0 | 0.00 | 0.12 | 0.02 | 97 | 1001.7 |
| 20260903043025 | 56 | 247 | 8.0 | 19.0 | 0.00 | 0.12 | 0.02 | 97 | 1001.5 |
| 20260903041525 | 56 | 242 | 11.0 | 18.0 | 0.00 | 0.13 | 0.02 | 97 | 1001.3 |
| 20260903040004 | 56 | 241 | 11.0 | 18.0 | 0.00 | 0.13 | 0.02 | 97 | 1001.2 |
| 20260903034504 | 56 | 244 | 6.0 | 13.0 | 0.00 | 0.13 | 0.02 | 98 | 1001.1 |
| 20260903033004 | 56 | 243 | 3.0 | 11.0 | 0.00 | 0.13 | 0.02 | 98 | 1001.3 |
| 20260903031504 | 56 | 241 | 3.0 | 8.0 | 0.00 | 0.13 | 0.02 | 97 | 1001.3 |
| 20260903030004 | 55 | 253 | 1.0 | 5.0 | 0.00 | 0.13 | 0.02 | 97 | 1001.3 |
| 20260903024504 | 56 | 192 | 0.0 | 2.0 | 0.00 | 0.13 | 0.02 | 98 | 1001.3 |
| 20260903023004 | 55 | 175 | 4.0 | 10.0 | 0.00 | 0.13 | 0.02 | 98 | 1001.4 |
| 20260903021504 | 56 | 171 | 13.0 | 16.0 | 0.00 | 0.13 | 0.02 | 97 | 1001.3 |
| 20260903020004 | 56 | 170 | 16.0 | 21.0 | 0.01 | 0.13 | 0.02 | 97 | 1001.2 |
| 20260903014504 | 56 | 173 | 15.0 | 19.0 | 0.01 | 0.13 | 0.02 | 97 | 1001.2 |
| 20260903013004 | 56 | 173 | 19.0 | 25.0 | 0.01 | 0.13 | 0.02 | 97 | 1001.3 |
| 20260903011504 | 56 | 173 | 17.0 | 24.0 | 0.01 | 0.13 | 0.02 | 97 | 1001.4 |
| 20260903010004 | 56 | 173 | 19.0 | 26.0 | 0.00 | 0.12 | 0.01 | 97 | 1001.6 |
| 20260903004504 | 56 | 169 | 19.0 | 25.0 | 0.01 | 0.12 | 0.01 | 98 | 1001.9 |
| 20260903003025 | 56 | 169 | 20.0 | 26.0 | 0.01 | 0.12 | 0.01 | 98 | 1002.0 |
| 20260903001504 | 56 | 168 | 21.0 | 26.0 | 0.01 | 0.12 | 0.01 | 98 | 1002.3 |
| 20260903000025 | 56 | 165 | 16.0 | 21.0 | 0.01 | 0.13 | 0.01 | 98 | 1002.6 |
| 20260902234504 | 56 | 163 | 14.0 | 20.0 | 0.02 | 0.12 | 0.00 | 98 | 1003.0 |
| 20260902233004 | 56 | 159 | 16.0 | 22.0 | 0.03 | 0.13 | 0.00 | 98 | 1003.1 |
| 20260902231504 | 55 | 159 | 15.0 | 21.0 | 0.05 | 0.13 | 0.00 | 98 | 1003.5 |
| 20260902230005 | 55 | 154 | 11.0 | 19.0 | 0.08 | 0.13 | 0.00 | 98 | 1003.7 |
| 20260902224504 | 55 | 149 | 12.0 | 19.0 | 0.07 | 0.11 | 0.11 | 98 | 1004.0 |
| 20260902223025 | 55 | 150 | 13.0 | 19.0 | 0.07 | 0.10 | 0.10 | 97 | 1004.3 |
| 20260902221504 | 54 | 153 | 12.0 | 16.0 | 0.05 | 0.08 | 0.08 | 97 | 1004.7 |
| 20260902220025 | 54 | 147 | 11.0 | 18.0 | 0.02 | 0.05 | 0.05 | 97 | 1004.8 |
| 20260902214504 | 54 | 145 | 11.0 | 15.0 | 0.01 | 0.04 | 0.04 | 97 | 1005.1 |
| 20260902213004 | 53 | 150 | 8.0 | 13.0 | 0.00 | 0.03 | 0.03 | 97 | 1005.4 |
| 20260902211504 | 53 | 146 | 14.0 | 20.0 | 0.00 | 0.03 | 0.03 | 96 | 1005.6 |
| 20260902210004 | 53 | 146 | 12.0 | 18.0 | 0.00 | 0.03 | 0.03 | 96 | 1005.9 |
| 20260902204504 | 53 | 160 | 14.0 | 20.0 | 0.00 | 0.03 | 0.03 | 96 | 1006.3 |
| 20260902203004 | 53 | 159 | 18.0 | 23.0 | 0.00 | 0.03 | 0.03 | 96 | 1006.5 |
| 20260902201504 | 52 | 155 | 18.0 | 25.0 | 0.00 | 0.03 | 0.03 | 95 | 1006.5 |
| 20260902200004 | 53 | 155 | 18.0 | 26.0 | 0.00 | 0.03 | 0.03 | 95 | 1006.7 |
| 20260902194525 | 53 | 155 | 19.0 | 25.0 | 0.00 | 0.03 | 0.03 | 95 | 1007.0 |
| 20260902193004 | 53 | 156 | 19.0 | 27.0 | 0.00 | 0.03 | 0.03 | 95 | 1007.1 |
| 20260902191504 | 53 | 149 | 17.0 | 24.0 | 0.00 | 0.03 | 0.03 | 94 | 1007.3 |
| 20260902190004 | 53 | 151 | 16.0 | 22.0 | 0.00 | 0.03 | 0.03 | 94 | 1007.5 |
| 20260902184504 | 53 | 155 | 16.0 | 22.0 | 0.00 | 0.03 | 0.03 | 93 | 1007.7 |
| 20260902183025 | 53 | 155 | 16.0 | 21.0 | 0.00 | 0.03 | 0.03 | 93 | 1007.8 |
| 20260902181504 | 53 | 153 | 15.0 | 23.0 | 0.00 | 0.03 | 0.03 | 92 | 1008.0 |
| 20260902180006 | 54 | 151 | 16.0 | 23.0 | 0.00 | 0.03 | 0.03 | 91 | 1008.1 |
| 20260902174503 | 54 | 150 | 15.0 | 25.0 | 0.00 | 0.03 | 0.03 | 91 | 1008.4 |
| 20260902173004 | 54 | 149 | 14.0 | 20.0 | 0.00 | 0.03 | 0.03 | 90 | 1008.6 |
| 20260902171504 | 55 | 147 | 14.0 | 22.0 | 0.00 | 0.03 | 0.03 | 90 | 1008.6 |
| 20260902170025 | 55 | 147 | 15.0 | 20.0 | 0.00 | 0.03 | 0.03 | 89 | 1008.7 |
| 20260902164503 | 55 | 144 | 15.0 | 21.0 | 0.00 | 0.03 | 0.03 | 89 | 1009.0 |
| 20260902163007 | 55 | 145 | 13.0 | 20.0 | 0.00 | 0.03 | 0.03 | 89 | 1009.3 |
| 20260902161504 | 55 | 139 | 15.0 | 21.0 | 0.00 | 0.03 | 0.03 | 88 | 1009.5 |
| 20260902160005 | 56 | 137 | 16.0 | 21.0 | 0.00 | 0.03 | 0.03 | 88 | 1009.7 |
| 20260902154503 | 56 | 141 | 14.0 | 20.0 | 0.00 | 0.03 | 0.03 | 88 | 1009.9 |
| 20260902153003 | 56 | 142 | 12.0 | 19.0 | 0.00 | 0.03 | 0.03 | 90 | 1010.1 |
| 20260902151524 | 56 | 140 | 12.0 | 16.0 | 0.00 | 0.03 | 0.03 | 90 | 1010.4 |
| 20260902150004 | 55 | 143 | 12.0 | 18.0 | 0.00 | 0.03 | 0.03 | 91 | 1010.7 |
| 20260902144503 | 55 | 152 | 13.0 | 18.0 | 0.00 | 0.03 | 0.03 | 91 | 1010.8 |
| 20260902143003 | 55 | 166 | 12.0 | 15.0 | 0.00 | 0.03 | 0.03 | 91 | 1011.1 |
| 20260902141504 | 56 | 162 | 11.0 | 16.0 | 0.00 | 0.03 | 0.03 | 88 | 1011.2 |
| 20260902140004 | 55 | 95 | 6.0 | 13.0 | 0.00 | 0.03 | 0.03 | 87 | 1011.2 |
| 20260902134524 | 55 | 75 | 5.0 | 10.0 | 0.00 | 0.03 | 0.03 | 83 | 1011.4 |
| 20260902133025 | 56 | 67 | 6.0 | 12.0 | 0.00 | 0.03 | 0.03 | 84 | 1011.2 |
| 20260902131503 | 56 | 72 | 5.0 | 10.0 | 0.00 | 0.03 | 0.03 | 81 | 1011.5 |
| 20260902130003 | 56 | 71 | 4.0 | 11.0 | 0.00 | 0.03 | 0.03 | 80 | 1011.6 |
| 20260902124524 | 57 | 61 | 6.0 | 13.0 | 0.00 | 0.03 | 0.03 | 80 | 1011.7 |
| 20260902123004 | 58 | 40 | 6.0 | 11.0 | 0.00 | 0.03 | 0.03 | 79 | 1011.6 |
| 20260902121503 | 58 | 41 | 7.0 | 13.0 | 0.00 | 0.03 | 0.03 | 80 | 1011.6 |
| 20260902120004 | 59 | 33 | 5.0 | 11.0 | 0.00 | 0.04 | 0.03 | 80 | 1011.8 |
| 20260902114503 | 58 | 32 | 6.0 | 11.0 | 0.00 | 0.14 | 0.03 | 81 | 1012.0 |
| 20260902113003 | 57 | 26 | 4.0 | 9.0 | 0.00 | 0.14 | 0.03 | 81 | 1012.3 |
| 20260902111503 | 57 | 9 | 4.0 | 8.0 | 0.00 | 0.14 | 0.03 | 83 | 1012.2 |